createdAt,value
2022-11-13T00:02:30.429Z,13.60
2022-11-13T00:05:18.415Z,14.98
2022-11-13T00:08:04.838Z,14.93
2022-11-13T00:10:51.613Z,13.70
2022-11-13T00:13:38.114Z,14.65
2022-11-13T00:16:24.798Z,15.00
2022-11-13T00:19:11.464Z,14.10
2022-11-13T00:22:00.229Z,14.48
2022-11-13T00:24:46.787Z,14.88
2022-11-13T00:27:33.570Z,13.68
2022-11-13T00:30:20.256Z,12.68
2022-11-13T00:33:06.891Z,14.48
2022-11-13T00:35:53.686Z,14.70
2022-11-13T00:38:41.446Z,15.18
2022-11-13T00:41:27.984Z,14.55
2022-11-13T00:44:14.876Z,14.75
2022-11-13T00:47:01.286Z,14.10
2022-11-13T00:49:47.741Z,15.18
2022-11-13T00:52:34.248Z,16.27
2022-11-13T00:55:22.059Z,14.98
2022-11-13T00:58:08.493Z,14.77
2022-11-13T01:00:55.272Z,14.45
2022-11-13T01:03:42.310Z,13.93
2022-11-13T01:06:29.680Z,14.43
2022-11-13T01:09:16.250Z,13.77
2022-11-13T01:12:04.158Z,13.50
2022-11-13T01:14:51.298Z,14.90
2022-11-13T01:17:38.443Z,14.38
2022-11-13T01:20:26.168Z,14.00
2022-11-13T01:23:12.739Z,13.35
2022-11-13T01:26:07.044Z,14.20
2022-11-13T01:28:57.061Z,13.10
2022-11-13T01:31:43.971Z,12.27
2022-11-13T01:34:30.768Z,12.98
2022-11-13T01:37:17.370Z,13.68
2022-11-13T01:40:04.354Z,14.30
2022-11-13T01:42:51.095Z,13.35
2022-11-13T01:46:07.378Z,13.55
2022-11-13T01:48:59.528Z,13.68
2022-11-13T01:51:50.825Z,13.68
2022-11-13T01:54:42.676Z,13.55
2022-11-13T01:57:29.865Z,12.93
2022-11-13T02:00:17.420Z,14.05
2022-11-13T02:03:05.668Z,13.25
2022-11-13T02:05:52.404Z,13.02
2022-11-13T02:08:39.707Z,12.90
2022-11-13T02:11:27.013Z,13.40
2022-11-13T02:14:15.321Z,13.20
2022-11-13T02:17:05.592Z,12.57
2022-11-13T02:20:02.746Z,13.07
2022-11-13T02:22:55.435Z,12.18
2022-11-13T02:25:44.432Z,12.68
2022-11-13T02:28:31.138Z,13.15
2022-11-13T02:31:17.895Z,12.45
2022-11-13T02:34:04.859Z,13.10
2022-11-13T02:36:51.747Z,13.13
2022-11-13T02:39:38.788Z,12.80
2022-11-13T02:42:27.118Z,13.02
2022-11-13T02:45:13.480Z,12.85
2022-11-13T02:48:00.894Z,13.15
2022-11-13T02:50:48.140Z,13.18
2022-11-13T02:53:34.753Z,12.23
2022-11-13T02:56:21.497Z,13.95
2022-11-13T02:59:09.545Z,14.27
2022-11-13T03:01:56.128Z,12.77
2022-11-13T03:05:10.896Z,12.50
2022-11-13T03:07:50.041Z,12.48
2022-11-13T03:10:37.506Z,12.98
2022-11-13T03:13:24.265Z,13.55
2022-11-13T03:16:14.028Z,12.52
2022-11-13T03:19:00.494Z,12.55
2022-11-13T03:21:47.244Z,11.88
2022-11-13T03:24:33.781Z,11.50
2022-11-13T03:27:20.859Z,12.20
2022-11-13T03:30:09.435Z,11.68
2022-11-13T03:32:58.228Z,11.55
2022-11-13T03:35:47.143Z,12.88
2022-11-13T03:38:33.562Z,11.27
2022-11-13T03:41:20.153Z,11.82
2022-11-13T03:44:07.135Z,11.55
2022-11-13T03:46:53.752Z,11.88
2022-11-13T03:49:41.400Z,12.50
2022-11-13T03:52:28.394Z,10.88
2022-11-13T03:55:15.152Z,12.35
2022-11-13T03:58:01.676Z,11.63
2022-11-13T04:00:48.818Z,12.00
2022-11-13T04:03:35.144Z,12.18
2022-11-13T04:06:23.161Z,12.32
2022-11-13T04:09:09.816Z,12.23
2022-11-13T04:11:56.093Z,11.88
2022-11-13T04:14:43.033Z,12.57
2022-11-13T04:17:29.617Z,12.00
2022-11-13T04:20:16.995Z,10.63
2022-11-13T04:23:07.850Z,12.43
2022-11-13T04:25:55.052Z,11.77
2022-11-13T04:28:41.776Z,12.85
2022-11-13T04:31:28.468Z,11.68
2022-11-13T04:34:15.386Z,12.20
2022-11-13T04:37:01.982Z,11.88
2022-11-13T04:39:49.807Z,11.75
2022-11-13T04:42:54.883Z,12.25
2022-11-13T04:45:48.702Z,11.98
2022-11-13T04:48:42.377Z,11.02
2022-11-13T04:51:29.867Z,11.30
2022-11-13T04:54:16.884Z,11.63
2022-11-13T04:57:05.333Z,11.60
2022-11-13T04:59:51.977Z,11.45
2022-11-13T05:02:38.675Z,10.63
2022-11-13T05:05:25.496Z,11.68
2022-11-13T05:08:12.826Z,12.25
2022-11-13T05:10:59.285Z,11.55
2022-11-13T05:13:47.168Z,11.05
2022-11-13T05:16:36.240Z,11.40
2022-11-13T05:19:23.136Z,10.57
2022-11-13T05:22:10.810Z,11.18
2022-11-13T05:24:57.387Z,10.90
2022-11-13T05:27:43.925Z,10.80
2022-11-13T05:30:31.730Z,10.70
2022-11-13T05:33:19.723Z,11.18
2022-11-13T05:36:10.017Z,11.25
2022-11-13T05:38:56.857Z,10.88
2022-11-13T05:41:43.049Z,11.60
2022-11-13T05:44:29.939Z,10.82
2022-11-13T05:47:17.857Z,11.77
2022-11-13T05:50:05.394Z,10.32
2022-11-13T05:52:52.048Z,11.63
2022-11-13T05:55:38.710Z,10.20
2022-11-13T05:58:25.666Z,10.77
2022-11-13T06:01:15.060Z,11.18
2022-11-13T06:04:03.760Z,11.48
2022-11-13T06:06:50.692Z,10.88
2022-11-13T06:09:36.989Z,10.30
2022-11-13T06:12:23.920Z,10.88
2022-11-13T06:15:11.446Z,10.57
2022-11-13T06:17:57.888Z,11.20
2022-11-13T06:20:45.914Z,10.80
2022-11-13T06:23:34.414Z,11.00
2022-11-13T06:26:23.465Z,11.35
2022-11-13T06:29:13.477Z,10.63
2022-11-13T06:32:00.090Z,10.60
2022-11-13T06:34:46.539Z,10.25
2022-11-13T06:37:34.897Z,9.57
2022-11-13T06:40:21.201Z,10.52
2022-11-13T06:43:07.703Z,10.35
2022-11-13T06:45:54.783Z,10.48
2022-11-13T06:48:41.464Z,10.32
2022-11-13T06:51:30.531Z,10.70
2022-11-13T06:54:18.855Z,9.73
2022-11-13T06:57:05.076Z,10.18
2022-11-13T06:59:51.560Z,9.63
2022-11-13T07:02:38.082Z,10.15
2022-11-13T07:05:24.864Z,10.68
2022-11-13T07:08:11.649Z,9.73
2022-11-13T07:11:00.771Z,10.63
2022-11-13T07:13:47.737Z,9.20
2022-11-13T07:16:56.250Z,9.82
2022-11-13T07:19:42.678Z,9.75
2022-11-13T07:22:30.428Z,9.82
2022-11-13T07:25:17.582Z,9.90
2022-11-13T07:28:07.560Z,9.48
2022-11-13T07:30:54.463Z,8.60
2022-11-13T07:33:41.195Z,10.60
2022-11-13T07:36:28.062Z,9.55
2022-11-13T07:39:14.959Z,9.57
2022-11-13T07:42:01.512Z,9.27
2022-11-13T07:44:54.452Z,10.70
2022-11-13T07:47:42.205Z,9.75
2022-11-13T07:50:29.900Z,10.15
2022-11-13T07:53:17.372Z,10.07
2022-11-13T07:56:04.585Z,9.43
2022-11-13T07:58:51.158Z,9.48
2022-11-13T08:01:39.160Z,10.57
2022-11-13T08:04:26.049Z,9.20
2022-11-13T08:07:13.608Z,10.32
2022-11-13T08:10:00.743Z,9.38
2022-11-13T08:12:48.319Z,9.50
2022-11-13T08:15:35.299Z,8.80
2022-11-13T08:18:23.227Z,9.95
2022-11-13T08:21:14.655Z,9.88
2022-11-13T08:24:01.892Z,9.60
2022-11-13T08:26:48.248Z,9.45
2022-11-13T08:29:37.424Z,9.48
2022-11-13T08:32:24.592Z,10.15
2022-11-13T08:35:16.043Z,9.88
2022-11-13T08:38:07.656Z,9.18
2022-11-13T08:40:58.203Z,9.38
2022-11-13T08:43:44.641Z,9.93
2022-11-13T08:46:31.647Z,10.10
2022-11-13T08:49:18.325Z,10.90
2022-11-13T08:52:06.910Z,10.10
2022-11-13T08:54:54.695Z,10.15
2022-11-13T08:57:41.718Z,9.30
2022-11-13T09:00:34.822Z,9.75
2022-11-13T09:03:21.348Z,10.32
2022-11-13T09:06:09.009Z,9.13
2022-11-13T09:08:56.947Z,10.00
2022-11-13T09:11:43.571Z,10.13
2022-11-13T09:14:30.736Z,9.77
2022-11-13T09:17:17.497Z,10.30
2022-11-13T09:20:08.796Z,9.75
2022-11-13T09:23:00.050Z,8.90
2022-11-13T09:25:48.990Z,10.02
2022-11-13T09:28:36.067Z,9.68
2022-11-13T09:31:22.931Z,9.35
2022-11-13T09:34:10.115Z,9.52
2022-11-13T09:36:56.716Z,9.60
2022-11-13T09:39:43.276Z,9.55
2022-11-13T09:42:33.426Z,9.30
2022-11-13T09:45:20.394Z,9.68
2022-11-13T09:48:18.519Z,11.15
2022-11-13T09:51:11.867Z,8.85
2022-11-13T09:53:59.542Z,10.55
2022-11-13T09:56:51.917Z,8.63
2022-11-13T09:59:47.571Z,9.93
2022-11-13T10:02:46.582Z,9.90
2022-11-13T10:05:40.660Z,9.45
2022-11-13T10:08:31.175Z,9.70
2022-11-13T10:11:25.882Z,9.60
2022-11-13T10:14:18.691Z,9.07
2022-11-13T10:17:14.683Z,8.35
2022-11-13T10:20:03.617Z,9.10
2022-11-13T10:22:52.426Z,9.18
2022-11-13T10:25:41.386Z,9.57
2022-11-13T10:28:49.299Z,9.60
2022-11-13T10:31:44.171Z,9.10
2022-11-13T10:34:33.687Z,9.43
2022-11-13T10:37:32.193Z,8.88
2022-11-13T10:40:29.470Z,8.93
2022-11-13T10:43:17.809Z,9.60
2022-11-13T10:46:06.704Z,9.13
2022-11-13T10:48:53.959Z,9.60
2022-11-13T10:51:42.280Z,8.35
2022-11-13T10:54:30.729Z,9.23
2022-11-13T10:57:33.226Z,8.95
2022-11-13T11:00:23.099Z,9.98
2022-11-13T11:03:14.710Z,8.65
2022-11-13T11:06:03.445Z,8.65
2022-11-13T11:08:51.336Z,9.02
2022-11-13T11:11:55.472Z,9.20
2022-11-13T11:14:46.191Z,9.88
2022-11-13T11:17:38.494Z,9.13
2022-11-13T11:20:36.614Z,9.10
2022-11-13T11:23:29.514Z,9.20
2022-11-13T11:26:22.655Z,9.63
2022-11-13T11:29:20.603Z,8.60
2022-11-13T11:32:15.920Z,9.77
2022-11-13T11:35:09.345Z,8.25
2022-11-13T11:38:04.170Z,8.85
2022-11-13T11:40:54.828Z,19.65
2022-11-13T11:43:44.506Z,14.30
2022-11-13T11:46:31.476Z,19.30
2022-11-13T11:49:19.156Z,11.13
2022-11-13T11:52:20.772Z,9.40
2022-11-13T11:55:32.520Z,8.75
2022-11-13T11:58:31.416Z,9.00
2022-11-13T12:01:33.760Z,8.30
2022-11-13T12:04:36.043Z,8.55
2022-11-13T12:07:33.912Z,8.40
2022-11-13T12:10:28.290Z,8.43
2022-11-13T12:13:27.130Z,8.23
2022-11-13T12:16:24.848Z,8.60
2022-11-13T12:19:25.065Z,7.85
2022-11-13T12:22:21.470Z,7.72
2022-11-13T12:25:19.038Z,8.00
2022-11-13T12:28:16.486Z,8.18
2022-11-13T12:31:12.629Z,8.10
2022-11-13T12:34:08.573Z,8.23
2022-11-13T12:36:57.061Z,7.68
2022-11-13T12:39:52.998Z,7.90
2022-11-13T12:42:45.450Z,7.28
2022-11-13T12:45:47.312Z,7.85
2022-11-13T12:48:36.627Z,7.55
2022-11-13T12:51:22.855Z,8.65
2022-11-13T12:54:13.365Z,7.93
2022-11-13T12:57:09.104Z,7.30
2022-11-13T12:59:57.606Z,7.03
2022-11-13T13:02:57.062Z,7.78
2022-11-13T13:06:19.741Z,8.50
2022-11-13T13:09:29.380Z,7.55
2022-11-13T13:12:35.913Z,7.88
2022-11-13T13:15:31.679Z,7.78
2022-11-13T13:18:28.262Z,8.02
2022-11-13T13:21:17.640Z,8.52
2022-11-13T13:24:09.906Z,8.48
2022-11-13T13:26:58.498Z,8.23
2022-11-13T13:29:45.084Z,8.80
2022-11-13T13:32:38.428Z,8.55
2022-11-13T13:35:30.942Z,8.17
2022-11-13T13:38:23.265Z,8.80
2022-11-13T13:41:19.927Z,10.23
2022-11-13T13:44:36.202Z,8.52
2022-11-13T13:47:27.401Z,10.43
2022-11-13T13:50:17.099Z,8.40
2022-11-13T13:53:04.221Z,9.48
2022-11-13T13:55:54.003Z,9.68
2022-11-13T13:58:41.943Z,9.57
2022-11-13T14:01:31.961Z,9.73
2022-11-13T14:04:20.758Z,9.02
2022-11-13T14:07:20.751Z,9.55
2022-11-13T14:10:17.448Z,9.68
2022-11-13T14:13:05.382Z,9.38
2022-11-13T14:16:02.005Z,9.27
2022-11-13T14:18:49.727Z,9.07
2022-11-13T14:21:37.687Z,9.45
2022-11-13T14:24:30.284Z,8.93
2022-11-13T14:27:19.912Z,10.23
2022-11-13T14:30:21.202Z,17.42
2022-11-13T14:33:10.768Z,9.50
2022-11-13T14:36:00.327Z,10.00
2022-11-13T14:38:52.110Z,10.10
2022-11-13T14:41:43.024Z,9.50
2022-11-13T14:44:32.600Z,12.00
2022-11-13T14:47:55.353Z,13.13
2022-11-13T14:50:52.457Z,13.05
2022-11-13T14:53:43.450Z,9.95
2022-11-13T14:56:35.852Z,12.98
2022-11-13T14:59:27.398Z,10.63
2022-11-13T15:02:14.840Z,10.90
2022-11-13T15:05:01.196Z,9.30
2022-11-13T15:07:48.052Z,9.60
2022-11-13T15:10:38.165Z,10.50
2022-11-13T15:13:25.078Z,10.55
2022-11-13T15:16:16.886Z,9.55
2022-11-13T15:19:07.221Z,10.30
2022-11-13T15:25:00.715Z,10.85
2022-11-13T15:27:48.845Z,9.88
2022-11-13T15:30:35.246Z,10.13
2022-11-13T15:33:22.158Z,12.00
2022-11-13T15:36:12.201Z,11.15
2022-11-13T15:39:02.349Z,10.77
2022-11-13T15:41:53.383Z,10.82
2022-11-13T15:44:41.843Z,11.55
2022-11-13T15:47:31.587Z,12.02
2022-11-13T15:50:18.330Z,11.70
2022-11-13T15:53:05.763Z,11.50
2022-11-13T15:55:52.680Z,12.05
2022-11-13T15:58:39.321Z,11.55
2022-11-13T16:01:27.577Z,11.68
2022-11-13T16:04:16.199Z,11.20
2022-11-13T16:07:02.968Z,9.95
2022-11-13T16:09:49.158Z,10.93
2022-11-13T16:12:35.924Z,10.60
2022-11-13T16:15:22.979Z,10.32
2022-11-13T16:18:21.186Z,11.13
2022-11-13T16:21:11.576Z,10.35
2022-11-13T16:23:58.768Z,11.00
2022-11-13T16:26:49.669Z,10.65
2022-11-13T16:29:36.629Z,11.25
2022-11-13T16:32:24.399Z,10.95
2022-11-13T16:35:17.483Z,10.98
2022-11-13T16:38:05.366Z,10.85
2022-11-13T16:40:52.242Z,10.18
2022-11-13T16:43:39.878Z,11.50
2022-11-13T16:46:29.906Z,9.82
2022-11-13T16:49:19.375Z,10.65
2022-11-13T16:52:08.025Z,10.98
2022-11-13T16:54:54.706Z,12.05
2022-11-13T16:57:41.550Z,10.27
2022-11-13T17:00:28.873Z,10.30
2022-11-13T17:03:15.362Z,10.80
2022-11-13T17:06:01.872Z,10.32
2022-11-13T17:08:51.962Z,11.35
2022-11-13T17:11:38.770Z,11.73
2022-11-13T17:14:25.049Z,10.77
2022-11-13T17:17:14.443Z,11.27
2022-11-13T17:20:00.881Z,11.52
2022-11-13T17:22:49.185Z,9.52
2022-11-13T17:25:37.253Z,10.18
2022-11-13T17:28:24.039Z,9.93
2022-11-13T17:31:12.984Z,9.57
2022-11-13T17:33:59.830Z,9.68
2022-11-13T17:36:46.399Z,9.93
2022-11-13T17:39:33.253Z,10.00
2022-11-13T17:42:21.352Z,10.57
2022-11-13T17:45:09.328Z,10.00
2022-11-13T17:47:56.210Z,9.48
2022-11-13T17:50:43.237Z,9.40
2022-11-13T17:53:30.706Z,9.82
2022-11-13T17:56:20.062Z,10.02
2022-11-13T17:59:20.864Z,10.70
2022-11-13T18:02:07.497Z,10.02
2022-11-13T18:04:56.318Z,10.20
2022-11-13T18:07:42.787Z,10.30
2022-11-13T18:10:29.271Z,10.30
2022-11-13T18:13:17.276Z,10.18
2022-11-13T18:16:10.003Z,9.68
2022-11-13T18:18:58.417Z,9.55
2022-11-13T18:21:45.282Z,10.43
2022-11-13T18:24:31.897Z,10.02
2022-11-13T18:27:18.632Z,9.73
2022-11-13T18:30:07.109Z,9.75
2022-11-13T18:32:55.112Z,9.88
2022-11-13T18:35:42.158Z,10.20
2022-11-13T18:38:29.471Z,11.00
2022-11-13T18:41:18.074Z,10.23
2022-11-13T18:44:05.410Z,10.93
2022-11-13T18:46:51.749Z,11.05
2022-11-13T18:49:39.937Z,10.95
2022-11-13T18:52:26.686Z,11.63
2022-11-13T18:55:14.004Z,10.55
2022-11-13T18:58:00.496Z,11.85
2022-11-13T19:00:47.192Z,10.95
2022-11-13T19:03:34.675Z,12.32
2022-11-13T19:06:24.968Z,12.30
2022-11-13T19:09:13.646Z,12.75
2022-11-13T19:12:00.645Z,12.80
2022-11-13T19:14:50.314Z,12.25
2022-11-13T19:17:41.401Z,11.13
2022-11-13T19:20:28.002Z,13.20
2022-11-13T19:23:17.007Z,11.70
2022-11-13T19:26:04.692Z,11.70
2022-11-13T19:28:52.855Z,12.60
2022-11-13T19:31:39.575Z,12.20
2022-11-13T19:34:26.058Z,12.68
2022-11-13T19:37:19.135Z,12.27
2022-11-13T19:40:08.549Z,13.82
2022-11-13T19:42:55.909Z,12.82
2022-11-13T19:45:43.012Z,15.10
2022-11-13T19:48:29.943Z,12.40
2022-11-13T19:51:18.566Z,14.18
2022-11-13T19:54:05.287Z,11.93
2022-11-13T19:56:53.700Z,13.77
2022-11-13T19:59:40.899Z,14.48
2022-11-13T20:02:27.346Z,13.63
2022-11-13T20:05:14.270Z,13.85
2022-11-13T20:08:01.271Z,13.45
2022-11-13T20:10:48.387Z,13.25
2022-11-13T20:13:38.941Z,13.55
2022-11-13T20:16:26.139Z,13.30
2022-11-13T20:19:12.561Z,14.18
2022-11-13T20:21:59.867Z,14.13
2022-11-13T20:24:49.023Z,14.48
2022-11-13T20:27:37.414Z,15.07
2022-11-13T20:30:25.882Z,14.98
2022-11-13T20:33:12.562Z,17.83
2022-11-13T20:35:59.492Z,15.80
2022-11-13T20:38:55.616Z,15.43
2022-11-13T20:41:42.670Z,16.88
2022-11-13T20:44:29.541Z,15.52
2022-11-13T20:47:17.684Z,16.48
2022-11-13T20:50:04.064Z,15.98
2022-11-13T20:52:50.749Z,15.32
2022-11-13T20:55:37.491Z,15.82
2022-11-13T20:58:24.102Z,16.88
2022-11-13T21:01:13.230Z,16.08
2022-11-13T21:04:01.281Z,16.92
2022-11-13T21:06:48.081Z,16.67
2022-11-13T21:09:34.699Z,16.42
2022-11-13T21:12:21.543Z,18.13
2022-11-13T21:15:09.224Z,16.90
2022-11-13T21:17:59.460Z,17.70
2022-11-13T21:20:48.053Z,18.80
2022-11-13T21:23:34.791Z,17.98
2022-11-13T21:26:21.407Z,17.58
2022-11-13T21:29:08.303Z,19.40
2022-11-13T21:31:54.912Z,19.88
2022-11-13T21:34:41.310Z,20.92
2022-11-13T21:37:29.326Z,19.45
2022-11-13T21:40:16.155Z,17.98
2022-11-13T21:43:03.097Z,21.92
2022-11-13T21:45:49.702Z,19.90
2022-11-13T21:48:36.297Z,18.65
2022-11-13T21:51:23.263Z,18.90
2022-11-13T21:54:11.545Z,20.90
2022-11-13T21:56:57.836Z,18.52
2022-11-13T21:59:44.387Z,19.85
2022-11-13T22:02:31.120Z,20.73
2022-11-13T22:05:17.538Z,20.60
2022-11-13T22:08:04.068Z,18.42
2022-11-13T22:10:52.061Z,21.55
2022-11-13T22:13:38.867Z,19.70
2022-11-13T22:16:26.868Z,21.10
2022-11-13T22:19:15.832Z,22.40
2022-11-13T22:22:02.619Z,21.35
2022-11-13T22:24:48.916Z,22.10
2022-11-13T22:27:36.776Z,23.85
2022-11-13T22:30:23.236Z,23.70
2022-11-13T22:33:09.550Z,23.85
2022-11-13T22:36:01.812Z,28.75
2022-11-13T22:38:48.668Z,25.90
2022-11-13T22:41:36.847Z,26.17
2022-11-13T22:44:35.070Z,24.95
2022-11-13T22:47:35.684Z,25.02
2022-11-13T22:50:25.056Z,26.38
2022-11-13T22:53:14.581Z,26.60
2022-11-13T22:56:02.658Z,28.30
2022-11-13T22:58:49.653Z,27.65
2022-11-13T23:01:39.230Z,28.15
2022-11-13T23:04:25.849Z,27.70
2022-11-13T23:07:12.623Z,27.08
2022-11-13T23:09:59.600Z,28.17
2022-11-13T23:12:45.896Z,27.05
2022-11-13T23:15:32.264Z,30.13
2022-11-13T23:18:20.470Z,28.98
2022-11-13T23:21:08.056Z,28.77
2022-11-13T23:23:55.424Z,28.35
2022-11-13T23:26:42.023Z,27.40
2022-11-13T23:29:28.562Z,27.77
2022-11-13T23:32:15.126Z,29.42
2022-11-13T23:35:03.270Z,26.45
2022-11-13T23:37:49.763Z,25.77
2022-11-13T23:40:36.391Z,23.58
2022-11-13T23:43:23.578Z,22.83
2022-11-13T23:46:13.292Z,24.42
2022-11-13T23:49:00.091Z,21.98
2022-11-13T23:51:47.984Z,23.13
2022-11-13T23:54:34.588Z,23.52
2022-11-13T23:57:21.354Z,19.75
